Time;durP1;ratioP1;P1;durP2;ratioP2;P2;SDS_P1;SDS_P2;PMS_P1;PMS_P2;Temp;Humidity;BMP_temperature;BMP_pressure;BME280_temperature;BME280_humidity;BME280_pressure;Samples;Min_cycle;Max_cycle;Signal;HPM_P1;HPM_P2
2020/12/11 00:00:50;;;;;;;27.83;20.35;;;;;;;9.26;74.58;97078.47;5101498;27;20489;-80
2020/12/11 00:03:16;;;;;;;29.30;20.67;;;;;;;9.70;73.15;97071.28;5107309;28;20034;-81
2020/12/11 00:05:41;;;;;;;28.23;20.60;;;;;;;9.35;73.83;97063.28;5105713;28;20486;-80
2020/12/11 00:08:11;;;;;;;25.90;19.50;;;;;;;9.35;73.92;97065.88;5107030;28;20034;-80
2020/12/11 00:10:36;;;;;;;30.17;21.67;;;;;;;9.33;74.25;97054.69;5122775;28;20382;-79
2020/12/11 00:13:02;;;;;;;28.30;20.55;;;;;;;9.08;75.13;97044.50;5127424;27;20035;-82
2020/12/11 00:15:28;;;;;;;31.83;21.65;;;;;;;9.42;74.01;97036.03;5106395;27;20046;-80
2020/12/11 00:17:53;;;;;;;32.22;21.77;;;;;;;9.32;74.24;97021.75;5119676;28;20091;-81
2020/12/11 00:20:19;;;;;;;30.40;21.75;;;;;;;9.39;73.86;97009.28;5108007;28;20531;-80
2020/12/11 00:22:45;;;;;;;33.83;22.63;;;;;;;9.45;73.48;97004.63;5104488;28;20069;-81
2020/12/11 00:25:11;;;;;;;31.05;20.77;;;;;;;9.18;74.70;96998.06;5109015;28;20031;-80
2020/12/11 00:27:36;;;;;;;33.42;23.80;;;;;;;9.34;74.35;96990.41;5123626;27;20031;-80
2020/12/11 00:30:04;;;;;;;36.10;23.88;;;;;;;9.19;74.79;96990.19;5126220;28;20031;-81
2020/12/11 00:32:30;;;;;;;31.70;22.77;;;;;;;9.13;75.01;96998.28;5117507;27;20128;-80
2020/12/11 00:34:57;;;;;;;33.05;22.55;;;;;;;9.30;74.59;96986.25;5119254;28;20099;-81
2020/12/11 00:37:23;;;;;;;30.70;21.17;;;;;;;8.92;76.08;96980.16;5124502;27;20130;-80
2020/12/11 00:39:49;;;;;;;33.33;23.02;;;;;;;9.36;74.49;96970.34;5120289;28;20042;-80
2020/12/11 00:42:20;;;;;;;33.88;23.73;;;;;;;9.33;74.72;96978.28;5111103;28;20138;-79
2020/12/11 00:44:47;;;;;;;35.50;22.53;;;;;;;9.23;74.70;96971.81;5117780;27;20031;-82
2020/12/11 00:47:13;;;;;;;35.10;24.15;;;;;;;9.16;75.03;96966.88;5120720;27;20113;-81
2020/12/11 00:49:40;;;;;;;35.33;23.55;;;;;;;9.03;75.73;96965.75;5107462;28;20051;-79
2020/12/11 00:52:07;;;;;;;39.03;25.75;;;;;;;9.51;73.97;96961.81;5121362;27;20095;-81
2020/12/11 00:54:33;;;;;;;40.17;25.73;;;;;;;9.56;73.71;96960.69;5110178;28;20154;-80
2020/12/11 00:56:59;;;;;;;37.22;24.92;;;;;;;9.26;75.07;96945.63;5117043;28;20244;-79
2020/12/11 00:59:25;;;;;;;42.38;27.23;;;;;;;8.89;75.96;96943.84;5106267;28;20058;-80
2020/12/11 01:01:50;;;;;;;42.33;27.83;;;;;;;8.91;76.16;96940.28;5103003;28;20129;-80
2020/12/11 01:04:16;;;;;;;42.58;24.98;;;;;;;8.84;76.17;96922.38;5122894;27;20184;-79
2020/12/11 01:06:42;;;;;;;45.67;27.95;;;;;;;9.16;75.50;96921.75;5106148;28;20072;-79
2020/12/11 01:09:08;;;;;;;47.72;26.90;;;;;;;9.05;75.26;96917.06;5125718;27;20135;-80
2020/12/11 01:11:34;;;;;;;41.15;26.60;;;;;;;9.08;75.15;96916.91;5127940;27;20051;-80
2020/12/11 01:14:01;;;;;;;42.00;26.67;;;;;;;9.31;74.39;96918.44;5116148;27;20053;-79
2020/12/11 01:16:27;;;;;;;45.35;28.20;;;;;;;9.17;74.80;96921.69;5127960;27;20088;-78
2020/12/11 01:18:53;;;;;;;45.10;26.67;;;;;;;9.32;74.42;96901.06;5123647;27;20039;-82
2020/12/11 01:21:19;;;;;;;37.53;21.98;;;;;;;8.97;75.31;96903.53;5128719;27;20492;-78
2020/12/11 01:23:44;;;;;;;39.85;25.30;;;;;;;9.46;74.22;96904.69;5128484;27;20035;-80
2020/12/11 01:26:10;;;;;;;40.38;25.35;;;;;;;9.12;75.51;96907.19;5125969;27;20031;-80
2020/12/11 01:28:37;;;;;;;35.95;23.63;;;;;;;8.95;75.43;96897.56;5122150;27;20038;-78
2020/12/11 01:31:04;;;;;;;42.97;26.45;;;;;;;9.19;75.37;96895.59;5109880;27;20044;-80
2020/12/11 01:33:29;;;;;;;37.17;24.42;;;;;;;9.07;75.67;96885.72;5109894;27;20046;-79
2020/12/11 01:35:55;;;;;;;36.20;22.75;;;;;;;9.10;75.22;96889.03;5132433;27;20035;-80
2020/12/11 01:38:23;;;;;;;33.15;21.85;;;;;;;9.17;75.00;96876.56;5113059;27;20041;-81
2020/12/11 01:40:50;;;;;;;31.33;20.27;;;;;;;9.23;75.01;96880.66;5109893;27;20114;-80
2020/12/11 01:43:22;;;;;;;34.35;22.13;;;;;;;9.00;75.96;96874.75;5121749;27;20430;-80
2020/12/11 01:45:48;;;;;;;30.83;21.27;;;;;;;9.19;75.15;96878.19;5108090;27;20035;-80
2020/12/11 01:48:15;;;;;;;34.63;23.40;;;;;;;9.20;74.99;96884.25;5124508;27;20130;-80
2020/12/11 01:50:41;;;;;;;37.40;25.48;;;;;;;9.62;73.92;96886.56;5126352;27;20084;-82
2020/12/11 01:53:09;;;;;;;42.50;25.17;;;;;;;9.53;74.01;96884.41;5124564;27;20060;-80
2020/12/11 01:55:37;;;;;;;40.60;23.83;;;;;;;9.15;75.54;96874.06;5124334;27;20031;-82
2020/12/11 01:58:13;;;;;;;39.38;24.90;;;;;;;9.48;74.19;96866.41;5111266;27;20035;-81
2020/12/11 02:00:42;;;;;;;39.40;25.05;;;;;;;9.30;74.88;96877.69;5124322;27;20035;-79
2020/12/11 02:03:10;;;;;;;35.25;23.42;;;;;;;9.57;74.00;96871.16;5110951;27;20034;-80
2020/12/11 02:05:36;;;;;;;36.13;23.00;;;;;;;9.31;74.59;96866.34;5124482;27;20120;-80
2020/12/11 02:08:11;;;;;;;37.15;24.30;;;;;;;9.54;73.99;96862.66;5114154;27;20058;-80
2020/12/11 02:10:38;;;;;;;35.03;23.52;;;;;;;9.57;73.65;96858.13;5107561;27;20038;-81
2020/12/11 02:13:09;;;;;;;34.97;23.50;;;;;;;9.34;74.28;96855.78;5130492;27;20031;-79
2020/12/11 02:15:36;;;;;;;35.97;22.55;;;;;;;9.51;73.86;96853.19;5106061;27;20042;-82
2020/12/11 02:18:03;;;;;;;33.08;21.05;;;;;;;9.30;74.29;96848.19;5124295;27;20217;-80
2020/12/11 02:20:31;;;;;;;46.17;24.02;;;;;;;9.25;74.71;96839.75;5130385;27;20039;-80
2020/12/11 02:22:56;;;;;;;27.98;19.45;;;;;;;9.27;74.58;96838.75;5134065;27;20183;-79
2020/12/11 02:25:23;;;;;;;30.55;20.70;;;;;;;9.51;74.22;96829.75;5107984;27;20100;-79
2020/12/11 02:27:49;;;;;;;32.63;21.77;;;;;;;9.26;74.79;96831.84;5127576;27;20118;-80
2020/12/11 02:30:16;;;;;;;30.73;21.02;;;;;;;9.23;75.01;96837.22;5107668;27;20074;-80
2020/12/11 02:32:41;;;;;;;27.40;18.48;;;;;;;9.24;75.31;96827.63;5123811;27;20108;-79
2020/12/11 02:35:08;;;;;;;30.23;20.00;;;;;;;9.39;74.11;96830.34;5109894;27;20027;-80
2020/12/11 02:37:38;;;;;;;29.25;19.02;;;;;;;9.52;73.61;96817.56;5110654;27;20032;-80
2020/12/11 02:40:07;;;;;;;26.25;17.50;;;;;;;9.40;74.39;96812.97;5128586;27;20119;-80
2020/12/11 02:42:34;;;;;;;31.23;19.80;;;;;;;9.52;73.83;96810.59;5104505;27;20035;-79
2020/12/11 02:45:00;;;;;;;28.52;18.85;;;;;;;9.56;73.89;96817.34;5132341;27;20083;-79
2020/12/11 02:47:26;;;;;;;28.88;19.85;;;;;;;9.45;73.80;96814.41;5125812;27;20403;-80
2020/12/11 02:49:52;;;;;;;29.85;19.73;;;;;;;9.42;74.35;96817.16;5121661;27;20046;-81
2020/12/11 02:52:17;;;;;;;27.35;19.17;;;;;;;9.47;74.27;96804.78;5123676;27;20043;-81
2020/12/11 02:54:43;;;;;;;28.83;19.15;;;;;;;9.76;73.41;96810.28;5126705;27;20438;-79
2020/12/11 02:57:09;;;;;;;24.95;17.27;;;;;;;9.33;74.64;96811.56;5103811;28;20035;-80
2020/12/11 02:59:34;;;;;;;24.20;17.92;;;;;;;9.60;74.05;96805.84;5125817;27;20385;-80
2020/12/11 03:02:00;;;;;;;28.77;18.85;;;;;;;9.47;74.29;96798.72;5110534;27;20114;-81
2020/12/11 03:04:26;;;;;;;23.70;15.52;;;;;;;9.16;75.19;96800.19;5124708;27;20031;-80
2020/12/11 03:06:53;;;;;;;23.95;17.05;;;;;;;9.39;75.01;96798.25;5126387;27;20023;-81
2020/12/11 03:09:19;;;;;;;26.60;18.98;;;;;;;9.84;73.28;96795.09;5107076;27;20108;-80
2020/12/11 03:11:46;;;;;;;26.17;17.48;;;;;;;9.83;72.86;96785.63;5125582;27;20026;-80
2020/12/11 03:14:11;;;;;;;23.65;16.65;;;;;;;9.79;73.18;96791.88;5121111;27;20439;-80
2020/12/11 03:16:37;;;;;;;22.95;16.45;;;;;;;9.61;73.56;96789.28;5127315;27;20043;-80
2020/12/11 03:19:03;;;;;;;22.55;16.35;;;;;;;9.65;73.42;96782.16;5119200;27;20050;-80
2020/12/11 03:21:29;;;;;;;23.20;15.82;;;;;;;9.50;73.85;96778.53;5105900;27;20111;-81
2020/12/11 03:23:54;;;;;;;24.92;15.40;;;;;;;9.51;74.46;96776.78;5107699;27;20031;-80
2020/12/11 03:26:20;;;;;;;19.45;14.15;;;;;;;9.67;73.48;96764.69;5126753;27;20446;-80
2020/12/11 03:28:47;;;;;;;19.10;14.65;;;;;;;9.79;73.72;96768.41;5125884;27;20023;-80
2020/12/11 03:31:15;;;;;;;19.67;13.50;;;;;;;9.56;74.47;96772.19;5122684;27;20058;-79
2020/12/11 03:33:41;;;;;;;19.90;14.38;;;;;;;9.90;73.39;96766.13;5122256;27;20089;-81
2020/12/11 03:36:07;;;;;;;17.83;13.60;;;;;;;10.31;71.58;96762.22;5127027;27;20035;-81
2020/12/11 03:38:32;;;;;;;20.85;13.55;;;;;;;9.90;72.89;96758.28;5130413;27;20621;-81
2020/12/11 03:40:58;;;;;;;17.50;13.25;;;;;;;9.90;72.82;96746.09;5110501;27;20398;-79
2020/12/11 03:43:26;;;;;;;16.88;13.25;;;;;;;9.42;74.91;96740.75;5129285;27;20347;-80
2020/12/11 03:45:52;;;;;;;18.73;12.95;;;;;;;9.41;74.92;96729.50;5108924;27;20030;-80
2020/12/11 03:48:18;;;;;;;17.20;13.13;;;;;;;9.25;75.39;96722.53;5119021;27;20087;-80
2020/12/11 03:50:46;;;;;;;15.32;12.55;;;;;;;9.62;74.51;96717.16;5103325;27;20031;-80
2020/12/11 03:53:12;;;;;;;18.00;13.30;;;;;;;9.52;74.64;96718.53;5110994;27;20053;-80
2020/12/11 03:55:39;;;;;;;16.92;12.60;;;;;;;9.61;74.16;96723.28;5103204;28;20077;-80
2020/12/11 03:58:05;;;;;;;17.20;12.93;;;;;;;9.87;73.29;96721.97;5125714;27;20027;-80
2020/12/11 04:00:34;;;;;;;18.13;13.43;;;;;;;9.93;73.38;96724.22;5108819;28;20031;-81
2020/12/11 04:02:59;;;;;;;17.92;13.40;;;;;;;9.89;73.86;96714.88;5105434;28;20127;-80
2020/12/11 04:05:25;;;;;;;19.48;14.02;;;;;;;9.78;74.04;96710.25;5116649;27;20070;-80
2020/12/11 04:07:51;;;;;;;19.50;13.90;;;;;;;9.91;72.75;96707.84;5128727;27;20035;-79
2020/12/11 04:10:17;;;;;;;19.52;14.00;;;;;;;9.84;72.93;96699.47;5126223;27;20095;-81
2020/12/11 04:12:44;;;;;;;21.05;15.05;;;;;;;10.46;71.33;96692.69;5104851;28;20027;-81
2020/12/11 04:15:10;;;;;;;21.35;14.13;;;;;;;10.20;71.99;96685.44;5119509;27;20096;-80
2020/12/11 04:17:36;;;;;;;21.00;15.23;;;;;;;10.28;71.60;96689.31;5121619;28;20027;-80
2020/12/11 04:20:02;;;;;;;22.90;15.07;;;;;;;10.15;72.70;96683.06;5124875;27;20202;-80
2020/12/11 04:22:27;;;;;;;20.23;14.70;;;;;;;9.92;72.62;96673.00;5130103;27;20530;-79
2020/12/11 04:24:53;;;;;;;20.15;14.02;;;;;;;10.14;72.29;96672.69;5123133;28;20031;-79
2020/12/11 04:27:19;;;;;;;19.88;14.98;;;;;;;9.86;73.27;96663.75;5110871;28;20077;-78
2020/12/11 04:29:44;;;;;;;20.00;14.57;;;;;;;9.89;73.69;96668.78;5129781;28;20027;-80
2020/12/11 04:32:10;;;;;;;19.42;14.55;;;;;;;9.72;73.95;96674.06;5124824;27;20057;-79
2020/12/11 04:34:36;;;;;;;22.70;13.75;;;;;;;9.77;73.80;96677.28;5108279;28;20042;-81
2020/12/11 04:37:01;;;;;;;21.42;14.82;;;;;;;9.77;73.65;96661.63;5123576;27;20036;-79
2020/12/11 04:39:27;;;;;;;20.33;14.63;;;;;;;9.67;74.42;96665.63;5129009;28;20031;-80
2020/12/11 04:41:53;;;;;;;23.50;15.45;;;;;;;9.43;74.74;96662.53;5123220;27;20043;-79
2020/12/11 04:44:20;;;;;;;20.45;15.20;;;;;;;9.46;74.83;96670.19;5105284;28;20042;-78
2020/12/11 04:46:46;;;;;;;19.38;14.07;;;;;;;9.32;75.75;96661.38;5075363;28;20055;-79
2020/12/11 04:49:17;;;;;;;20.48;14.35;;;;;;;9.48;75.14;96668.34;5113812;28;20058;-79
2020/12/11 04:51:49;;;;;;;25.38;15.57;;;;;;;9.34;75.64;96663.00;5075498;28;20058;-79
2020/12/11 04:54:22;;;;;;;20.85;15.18;;;;;;;9.70;74.44;96657.66;5071376;28;20506;-80
2020/12/11 04:56:51;;;;;;;23.63;16.48;;;;;;;9.84;73.97;96656.91;5108226;28;20028;-79
2020/12/11 04:59:17;;;;;;;23.67;16.42;;;;;;;10.04;73.36;96657.53;5096725;28;20031;-80
2020/12/11 05:01:44;;;;;;;22.38;15.77;;;;;;;9.94;73.75;96647.69;5089332;28;20070;-81
2020/12/11 05:04:10;;;;;;;22.88;15.50;;;;;;;9.95;73.29;96649.38;5077467;28;20161;-79
2020/12/11 05:06:36;;;;;;;21.83;15.00;;;;;;;9.93;73.70;96641.63;5076030;28;20043;-79
2020/12/11 05:09:16;;;;;;;22.30;15.43;;;;;;;9.78;73.86;96646.84;5074752;28;20645;-79
2020/12/11 05:11:44;;;;;;;21.30;14.75;;;;;;;9.75;74.08;96636.53;5075427;28;20045;-80
2020/12/11 05:14:20;;;;;;;23.98;15.57;;;;;;;9.85;74.12;96619.50;5075660;28;20509;-79
2020/12/11 05:17:05;;;;;;;23.55;14.32;;;;;;;9.71;74.50;96625.44;5135264;27;20027;-80
2020/12/11 05:19:34;;;;;;;23.33;15.57;;;;;;;10.01;72.81;96622.97;5132445;27;20066;-79
2020/12/11 05:22:11;;;;;;;26.90;15.70;;;;;;;9.91;74.34;96622.63;5108757;27;20486;-79
2020/12/11 05:24:48;;;;;;;26.33;16.65;;;;;;;10.55;71.72;96616.50;5116469;27;20080;-79
2020/12/11 05:27:35;;;;;;;26.38;15.88;;;;;;;10.81;70.88;96615.88;5114730;27;20035;-79
2020/12/11 05:30:13;;;;;;;26.52;15.68;;;;;;;10.36;72.18;96616.69;5129826;27;20118;-79
2020/12/11 05:32:56;;;;;;;25.48;15.15;;;;;;;10.29;72.71;96610.13;5133794;27;20656;-79
2020/12/11 05:35:25;;;;;;;24.80;16.00;;;;;;;10.28;72.72;96599.78;5129952;27;20054;-79
2020/12/11 05:37:59;;;;;;;24.98;15.88;;;;;;;10.22;73.09;96606.16;5115460;27;20130;-80
2020/12/11 05:40:32;;;;;;;31.60;17.42;;;;;;;10.18;73.02;96614.25;5135062;27;20031;-81
2020/12/11 05:43:15;;;;;;;30.70;16.63;;;;;;;10.41;72.17;96612.03;5129447;27;20425;-79
2020/12/11 05:46:07;;;;;;;30.10;17.83;;;;;;;10.43;72.26;96610.22;5113970;27;20019;-80
2020/12/11 05:48:38;;;;;;;37.65;18.92;;;;;;;10.15;73.51;96611.78;5127537;27;20078;-81
2020/12/11 05:51:15;;;;;;;52.75;19.33;;;;;;;10.38;72.72;96599.19;5114591;27;20065;-80
2020/12/11 05:53:42;;;;;;;40.53;19.88;;;;;;;10.18;73.29;96601.22;5127344;27;20039;-78
2020/12/11 05:56:08;;;;;;;76.18;20.75;;;;;;;10.52;72.31;96598.41;5131474;27;20035;-79
2020/12/11 05:58:34;;;;;;;355.58;28.13;;;;;;;10.64;71.65;96599.50;5126393;27;20666;-80
2020/12/11 06:01:00;;;;;;;374.13;26.40;;;;;;;10.93;70.49;96596.06;5133103;27;20090;-80
2020/12/11 06:03:27;;;;;;;115.78;22.90;;;;;;;10.89;70.60;96595.38;5100499;27;20042;-79
2020/12/11 06:05:57;;;;;;;234.07;23.65;;;;;;;10.86;70.83;96592.94;5097754;28;20090;-79
2020/12/11 06:08:26;;;;;;;502.98;30.25;;;;;;;10.57;71.67;96590.31;5099348;28;20070;-80
2020/12/11 06:10:53;;;;;;;333.65;26.27;;;;;;;10.59;71.71;96594.53;5078060;28;20047;-79
2020/12/11 06:13:38;;;;;;;516.58;34.38;;;;;;;10.39;72.71;96592.19;5097570;28;20043;-79
2020/12/11 06:16:05;;;;;;;276.17;23.70;;;;;;;10.69;71.82;96590.47;5092213;28;20044;-80
2020/12/11 06:18:37;;;;;;;592.25;37.00;;;;;;;10.59;71.57;96583.25;5079527;28;20063;-80
2020/12/11 06:21:04;;;;;;;293.03;25.30;;;;;;;10.73;71.55;96591.13;5109331;28;20035;-81
2020/12/11 06:23:32;;;;;;;558.75;32.55;;;;;;;10.66;71.24;96587.19;5096294;28;20296;-81
2020/12/11 06:25:59;;;;;;;615.28;38.40;;;;;;;10.42;72.10;96584.19;5113678;28;20100;-79
2020/12/11 06:28:45;;;;;;;308.40;28.90;;;;;;;10.68;71.85;96582.72;5116146;28;20038;-80
2020/12/11 06:31:13;;;;;;;737.53;42.92;;;;;;;10.11;74.26;96578.97;5111286;27;20117;-80
2020/12/11 06:33:47;;;;;;;324.90;29.83;;;;;;;10.59;72.34;96580.63;5096234;28;20036;-79
2020/12/11 06:36:14;;;;;;;359.70;31.02;;;;;;;10.36;73.30;96581.94;5092197;28;20090;-81
2020/12/11 06:38:41;;;;;;;380.85;32.72;;;;;;;10.42;73.05;96585.03;5110870;28;20039;-81
2020/12/11 06:41:07;;;;;;;770.80;42.95;;;;;;;9.76;75.39;96593.94;5098848;28;20028;-80
2020/12/11 06:43:44;;;;;;;195.07;27.13;;;;;;;10.60;72.94;96574.50;5102243;27;20050;-81
2020/12/11 06:46:18;;;;;;;143.43;25.63;;;;;;;10.66;72.58;96581.94;5127483;27;20023;-80
2020/12/11 06:49:13;;;;;;;84.88;22.50;;;;;;;10.75;72.84;96582.25;5113093;27;20106;-80
2020/12/11 06:51:46;;;;;;;98.18;23.25;;;;;;;10.53;73.59;96587.03;5123119;27;20035;-80
2020/12/11 06:54:21;;;;;;;154.00;26.38;;;;;;;10.40;74.55;96580.84;5133319;27;20679;-80
2020/12/11 06:56:51;;;;;;;122.45;25.38;;;;;;;10.71;73.26;96582.53;5139111;27;20533;-79
2020/12/11 06:59:19;;;;;;;116.32;24.38;;;;;;;10.84;72.60;96575.66;5117582;27;20036;-80
2020/12/11 07:01:45;;;;;;;195.27;28.55;;;;;;;10.38;74.12;96578.31;5132308;27;20062;-79
2020/12/11 07:04:11;;;;;;;101.57;22.20;;;;;;;10.58;73.61;96571.97;5117204;28;20043;-84
2020/12/11 07:06:46;;;;;;;248.90;28.83;;;;;;;10.86;73.29;96569.44;5120629;27;20062;-79
2020/12/11 07:09:12;;;;;;;137.88;24.55;;;;;;;10.99;72.44;96574.78;5113644;27;20126;-79
2020/12/11 07:11:38;;;;;;;142.23;23.38;;;;;;;10.70;73.61;96571.25;5134965;27;20031;-80
2020/12/11 07:14:04;;;;;;;311.58;28.75;;;;;;;10.58;73.80;96576.34;5133447;27;20068;-79
2020/12/11 07:16:30;;;;;;;167.23;26.85;;;;;;;10.93;73.10;96578.56;5114055;27;20099;-78
2020/12/11 07:18:56;;;;;;;133.40;24.92;;;;;;;10.82;73.68;96578.38;5134158;27;20039;-80
2020/12/11 07:21:27;;;;;;;136.63;24.08;;;;;;;10.87;73.48;96581.56;5131739;27;20035;-79
2020/12/11 07:23:53;;;;;;;77.07;19.65;;;;;;;10.73;73.82;96573.69;5111071;27;20055;-79
2020/12/11 07:26:19;;;;;;;115.85;21.02;;;;;;;10.68;74.10;96573.13;5133517;27;20030;-78
2020/12/11 07:28:46;;;;;;;71.25;19.25;;;;;;;10.72;74.19;96568.56;5120598;27;20027;-80
2020/12/11 07:31:12;;;;;;;86.28;21.10;;;;;;;10.76;73.92;96564.84;5115257;27;20733;-80
2020/12/11 07:33:38;;;;;;;69.60;21.48;;;;;;;11.06;73.56;96576.09;5130391;27;20027;-82
2020/12/11 07:36:04;;;;;;;74.97;23.13;;;;;;;11.40;72.02;96579.31;5127602;27;20099;-80
2020/12/11 07:38:31;;;;;;;105.30;21.55;;;;;;;11.46;71.17;96579.81;5093285;27;20050;-79
2020/12/11 07:40:59;;;;;;;96.20;22.20;;;;;;;11.51;71.45;96577.72;5131150;27;20087;-80
2020/12/11 07:43:25;;;;;;;93.38;23.10;;;;;;;11.40;71.97;96581.94;5122214;27;20023;-78
2020/12/11 07:45:52;;;;;;;142.20;23.45;;;;;;;11.31;72.19;96580.72;5111839;27;20078;-79
2020/12/11 07:48:18;;;;;;;128.15;25.75;;;;;;;11.34;72.44;96580.53;5126487;27;20537;-79
2020/12/11 07:50:46;;;;;;;219.82;27.70;;;;;;;11.03;72.46;96583.28;5092786;28;20036;-78
2020/12/11 07:53:13;;;;;;;328.25;32.10;;;;;;;10.89;74.66;96579.69;5084450;28;20135;-79
2020/12/11 07:55:39;;;;;;;190.30;29.98;;;;;;;11.21;72.54;96583.03;5106898;28;20065;-79
2020/12/11 07:58:05;;;;;;;96.32;24.48;;;;;;;10.94;73.40;96577.66;5095967;28;20055;-79
2020/12/11 08:00:36;;;;;;;72.30;22.95;;;;;;;11.05;73.51;96590.09;5110339;28;20059;-79
2020/12/11 08:03:08;;;;;;;105.57;25.20;;;;;;;10.79;73.79;96580.34;5083642;28;20103;-81
2020/12/11 08:05:36;;;;;;;95.88;25.15;;;;;;;10.92;73.44;96581.31;5084371;28;20040;-81
2020/12/11 08:08:08;;;;;;;127.55;26.85;;;;;;;10.96;73.55;96580.19;5081103;28;20200;-80
2020/12/11 08:10:43;;;;;;;75.57;25.63;;;;;;;11.01;73.18;96580.75;5080990;28;20070;-81
2020/12/11 08:13:15;;;;;;;87.60;25.77;;;;;;;11.46;72.17;96582.41;5095872;28;20031;-81
2020/12/11 08:15:45;;;;;;;59.33;22.17;;;;;;;11.63;71.03;96587.44;5114588;28;20047;-81
2020/12/11 08:18:20;;;;;;;54.05;20.77;;;;;;;11.58;69.92;96581.66;5097911;28;20039;-81
2020/12/11 08:20:54;;;;;;;43.50;19.33;;;;;;;11.80;70.26;96579.44;5129391;27;20019;-80
2020/12/11 08:23:25;;;;;;;39.10;16.15;;;;;;;11.37;71.04;96589.00;5124726;27;20094;-80
2020/12/11 08:26:07;;;;;;;43.28;17.05;;;;;;;11.82;69.54;96587.19;5134743;27;20395;-82
2020/12/11 08:28:34;;;;;;;49.30;18.13;;;;;;;11.61;69.97;96589.31;5139241;27;20039;-79
2020/12/11 08:31:39;;;;;;;50.60;19.17;;;;;;;11.11;71.99;96584.53;5138756;27;20035;-81
2020/12/11 08:34:15;;;;;;;47.95;18.25;;;;;;;11.13;71.55;96587.84;5068467;28;20143;-83
2020/12/11 08:36:46;;;;;;;51.20;18.63;;;;;;;11.34;71.27;96585.75;5059831;28;20106;-79
2020/12/11 08:39:21;;;;;;;49.38;18.50;;;;;;;11.08;72.13;96578.63;5071668;28;20407;-79
2020/12/11 08:48:05;;;;;;;52.42;19.73;;;;;;;11.16;72.02;96589.47;5085871;28;20041;-80
2020/12/11 08:50:36;;;;;;;56.08;22.35;;;;;;;11.46;70.95;96582.41;5061793;28;20043;-79
2020/12/11 08:53:08;;;;;;;53.55;20.95;;;;;;;11.65;70.33;96588.22;5058417;28;20059;-79
2020/12/11 08:55:38;;;;;;;59.75;22.17;;;;;;;11.73;70.14;96599.06;5050194;28;20051;-78
2020/12/11 08:58:05;;;;;;;55.70;22.02;;;;;;;11.66;70.14;96592.47;5056364;28;20201;-78
2020/12/11 09:00:40;;;;;;;53.55;22.15;;;;;;;11.70;70.35;96595.78;5055091;28;20048;-79
2020/12/11 09:03:06;;;;;;;56.50;24.88;;;;;;;11.85;69.96;96604.44;5057212;28;20041;-79
2020/12/11 09:05:34;;;;;;;60.33;25.45;;;;;;;12.01;69.27;96602.59;5071958;28;20832;-79
2020/12/11 09:08:00;;;;;;;62.30;24.98;;;;;;;11.50;71.30;96594.38;5051919;28;20154;-78
2020/12/11 09:10:27;;;;;;;67.22;24.48;;;;;;;11.99;68.91;96600.06;5080807;28;20123;-81
2020/12/11 09:12:53;;;;;;;64.68;25.65;;;;;;;12.01;69.46;96598.19;5103166;28;20038;-81
2020/12/11 09:15:21;;;;;;;64.75;23.23;;;;;;;11.96;69.39;96595.03;5087651;28;20028;-79
2020/12/11 09:17:47;;;;;;;60.13;22.95;;;;;;;11.79;70.04;96601.31;5089245;28;20032;-82
2020/12/11 09:20:14;;;;;;;53.35;21.10;;;;;;;11.92;70.09;96595.31;5087572;28;20027;-81
2020/12/11 09:22:40;;;;;;;58.17;21.20;;;;;;;11.80;70.17;96599.50;5086624;28;20124;-80
2020/12/11 09:25:07;;;;;;;63.38;24.40;;;;;;;11.87;70.25;96595.59;5077529;28;20089;-79
2020/12/11 09:27:35;;;;;;;63.28;23.92;;;;;;;12.09;69.07;96608.16;5089445;28;20478;-77
2020/12/11 09:33:12;;;;;;;60.72;22.17;;;;;;;12.24;68.97;96605.44;5081994;28;20047;-76
2020/12/11 09:35:39;;;;;;;59.28;23.48;;;;;;;12.02;69.78;96618.19;5089169;28;20044;-77
2020/12/11 09:38:05;;;;;;;64.45;24.00;;;;;;;12.10;69.43;96621.16;5048272;28;20032;-78
2020/12/11 09:48:40;;;;;;;93.20;24.10;;;;;;;12.05;70.30;96619.75;5069976;28;20475;-77
2020/12/11 09:56:27;;;;;;;105.13;23.65;;;;;;;11.66;72.09;96633.47;5069065;28;20504;-76
2020/12/11 09:59:00;;;;;;;110.97;24.52;;;;;;;11.38;72.82;96631.69;5060213;28;20043;-77
2020/12/11 10:01:43;;;;;;;97.20;24.73;;;;;;;11.63;72.07;96624.06;5084106;28;20145;-77
2020/12/11 10:04:09;;;;;;;109.53;26.38;;;;;;;12.03;70.95;96632.97;5064803;28;20023;-76
2020/12/11 10:06:35;;;;;;;192.27;27.63;;;;;;;11.90;71.14;96626.78;5056276;28;20036;-78
2020/12/11 10:09:01;;;;;;;212.38;28.02;;;;;;;11.84;71.95;96627.19;5090150;28;20411;-76
2020/12/11 10:11:27;;;;;;;332.73;31.48;;;;;;;11.74;72.03;96629.53;5086248;28;20044;-78
2020/12/11 10:14:07;;;;;;;401.60;34.13;;;;;;;11.56;72.97;96632.38;5084597;28;20521;-78
2020/12/11 10:16:33;;;;;;;466.65;35.60;;;;;;;11.18;74.34;96629.38;5104914;28;20348;-77
2020/12/11 10:18:58;;;;;;;447.67;36.83;;;;;;;11.32;73.65;96627.66;5092912;28;20046;-80
2020/12/11 10:21:24;;;;;;;372.92;29.02;;;;;;;11.43;73.69;96626.19;5071936;28;20028;-78
2020/12/11 10:23:50;;;;;;;306.50;32.42;;;;;;;11.78;72.36;96622.31;5089336;28;20390;-79
2020/12/11 10:26:15;;;;;;;226.15;30.90;;;;;;;11.77;72.41;96628.47;5085515;28;20024;-79
2020/12/11 10:28:41;;;;;;;305.65;31.63;;;;;;;11.54;73.58;96618.53;5086988;28;20032;-78
2020/12/11 10:31:07;;;;;;;364.90;32.22;;;;;;;11.58;73.04;96620.03;5084649;28;20417;-79
2020/12/11 10:33:33;;;;;;;338.98;32.78;;;;;;;11.69;72.90;96626.31;5084721;28;20080;-78
2020/12/11 10:35:59;;;;;;;549.53;38.90;;;;;;;11.46;73.43;96621.63;5070502;28;20059;-81
2020/12/11 10:38:26;;;;;;;259.00;32.17;;;;;;;12.11;71.84;96625.47;5088908;28;20042;-79
2020/12/11 10:40:52;;;;;;;542.80;37.92;;;;;;;11.90;71.95;96624.16;5087506;28;20032;-77
2020/12/11 10:43:18;;;;;;;366.85;35.63;;;;;;;12.09;71.81;96622.09;5084041;28;20043;-79
2020/12/11 10:45:44;;;;;;;373.38;31.88;;;;;;;12.09;71.31;96627.31;5070002;28;20383;-80
2020/12/11 10:48:11;;;;;;;346.55;33.42;;;;;;;12.28;70.98;96623.59;5099928;28;20074;-81
2020/12/11 10:50:36;;;;;;;280.48;30.50;;;;;;;12.43;70.56;96627.81;5087632;28;20436;-80
2020/12/11 10:53:02;;;;;;;239.85;30.75;;;;;;;12.07;71.49;96620.53;5106843;27;20096;-80
2020/12/11 10:55:29;;;;;;;173.85;29.40;;;;;;;12.30;70.68;96621.69;5118602;27;20035;-81
2020/12/11 10:57:55;;;;;;;237.85;29.70;;;;;;;11.90;72.08;96618.94;5131267;27;20074;-79
2020/12/11 11:00:21;;;;;;;166.32;29.65;;;;;;;12.31;70.79;96623.38;5127973;27;20090;-79
2020/12/11 11:02:47;;;;;;;216.60;29.80;;;;;;;12.19;71.21;96609.28;5111063;27;20034;-80
2020/12/11 11:05:13;;;;;;;221.07;29.75;;;;;;;11.86;72.61;96624.44;5116116;27;20039;-79
2020/12/11 11:07:39;;;;;;;87.57;27.95;;;;;;;12.47;70.97;96617.06;5128596;27;20030;-82
2020/12/11 11:12:42;;;;;;;150.57;27.30;;;;;;;12.56;70.38;96613.88;5128174;27;20109;-82
2020/12/11 11:26:03;;;;;;;98.65;26.15;;;;;;;12.68;69.88;96618.31;5127868;27;20053;-81
2020/12/11 11:28:26;;;;;;;84.15;25.30;;;;;;;12.52;69.90;96609.75;5122716;27;20342;-77
2020/12/11 11:30:51;;;;;;;81.78;24.70;;;;;;;12.52;70.31;96612.38;5123573;27;20027;-79
2020/12/11 11:33:17;;;;;;;93.10;24.58;;;;;;;12.52;70.14;96609.75;5125114;27;20080;-78
2020/12/11 11:35:45;;;;;;;77.18;25.30;;;;;;;12.76;69.40;96617.78;5110256;27;20112;-78
2020/12/11 11:38:12;;;;;;;81.00;27.80;;;;;;;12.84;69.16;96609.44;5106023;27;20041;-80
2020/12/11 11:40:39;;;;;;;79.50;25.85;;;;;;;12.80;69.23;96605.38;5112403;27;20027;-82
2020/12/11 11:43:09;;;;;;;80.78;25.55;;;;;;;12.97;68.54;96613.78;5130408;27;20030;-78
2020/12/11 11:45:36;;;;;;;72.30;24.25;;;;;;;13.00;68.87;96610.94;5106767;27;20030;-82
2020/12/11 11:48:07;;;;;;;74.55;23.92;;;;;;;12.58;69.67;96606.75;5106942;27;20032;-78
2020/12/11 11:50:44;;;;;;;73.95;26.63;;;;;;;12.81;69.42;96605.25;5107418;27;20307;-81
2020/12/11 11:53:15;;;;;;;97.18;32.88;;;;;;;12.93;68.84;96606.22;5106917;27;20043;-82
2020/12/11 11:55:42;;;;;;;205.63;29.55;;;;;;;12.50;70.01;96602.94;5123502;27;20083;-82
2020/12/11 11:58:09;;;;;;;164.80;28.88;;;;;;;12.40;70.75;96599.22;5107424;27;20039;-81
2020/12/11 12:00:36;;;;;;;131.82;29.10;;;;;;;12.24;71.17;96600.19;5112999;28;20050;-82